Tonypandy, United Kingdom
Current Conditions -  °F | °C
As of 4:50 AM on Sunday 21 Dec 2014 (Local Time) from EGDX Reporting Station
Rain Showers Rain Showers  
Wind Chill:   Ceiling: 1500
Heat Index:   Visibility: 6mi
Dew Point:   Wind: 21mph
Humidity: 93%   Direction: 270°W
Pressure: 30.36"   Gusts: 35mph
Location:  51.62°N, 3.45°W
Report Text: EGDX 210450Z AUTO 27018G30KT 9999 -SHRA FEW005/// BKN015/// 08/07 Q1028
Loading
Personal Weather Stations






























Interactive Weather Map New forecast layout! Learn more

10-Day Weather Forecast

Advertisements
Track Severe Weather on mobile